createdAt,value
2022-08-05T00:00:07.759Z,59.02
2022-08-05T00:03:06.172Z,59.12
2022-08-05T00:06:04.908Z,58.95
2022-08-05T00:09:03.659Z,58.89
2022-08-05T00:11:56.107Z,59.18
2022-08-05T00:14:45.878Z,59.26
2022-08-05T00:17:38.146Z,59.56
2022-08-05T00:20:29.082Z,59.55
2022-08-05T00:23:16.742Z,59.65
2022-08-05T00:26:03.149Z,59.88
2022-08-05T00:28:49.969Z,59.89
2022-08-05T00:31:54.494Z,59.99
2022-08-05T00:35:04.582Z,60.06
2022-08-05T00:37:54.159Z,60.33
2022-08-05T00:40:53.160Z,60.61
2022-08-05T00:43:49.593Z,60.49
2022-08-05T00:46:43.575Z,60.46
2022-08-05T00:49:32.518Z,60.39
2022-08-05T00:52:28.445Z,60.78
2022-08-05T00:55:16.166Z,60.86
2022-08-05T00:58:06.534Z,60.76
2022-08-05T01:03:57.596Z,61.27
2022-08-05T01:06:48.482Z,61.16
2022-08-05T01:09:35.304Z,61.37
2022-08-05T01:12:29.804Z,61.62
2022-08-05T01:15:35.691Z,61.70
2022-08-05T01:18:27.478Z,61.54
2022-08-05T01:21:44.160Z,62.07
2022-08-05T01:25:15.035Z,61.99
2022-08-05T01:28:27.124Z,62.06
2022-08-05T01:31:32.463Z,61.93
2022-08-05T01:34:39.918Z,61.93
2022-08-05T01:37:49.099Z,62.12
2022-08-05T01:40:35.350Z,61.86
2022-08-05T01:43:24.300Z,62.04
2022-08-05T01:46:16.430Z,61.90
2022-08-05T01:49:23.352Z,62.00
2022-08-05T01:52:17.456Z,62.14
2022-08-05T01:55:11.195Z,62.37
2022-08-05T01:58:13.648Z,62.72
2022-08-05T02:01:04.123Z,62.39
2022-08-05T02:03:58.043Z,62.36
2022-08-05T02:06:46.494Z,62.75
2022-08-05T02:09:33.697Z,62.95
2022-08-05T02:12:33.950Z,62.93
2022-08-05T02:15:26.424Z,62.55
2022-08-05T02:18:34.930Z,63.03
2022-08-05T02:21:46.711Z,62.60
2022-08-05T02:24:40.161Z,62.73
2022-08-05T02:27:29.855Z,62.79
2022-08-05T02:30:54.310Z,63.11
2022-08-05T02:33:49.069Z,62.58
2022-08-05T02:36:46.043Z,62.81
2022-08-05T02:39:41.304Z,62.83
2022-08-05T02:42:31.917Z,62.79
2022-08-05T02:45:52.751Z,62.90
2022-08-05T02:48:36.649Z,63.04
2022-08-05T02:51:28.463Z,63.19
2022-08-05T02:54:37.143Z,62.73
2022-08-05T02:58:11.119Z,63.00
2022-08-05T03:00:37.239Z,63.10
2022-08-05T03:03:33.855Z,63.32
2022-08-05T03:06:55.039Z,63.42
2022-08-05T03:09:38.181Z,63.50
2022-08-05T03:12:34.878Z,63.38
2022-08-05T03:15:24.807Z,63.90
2022-08-05T03:18:12.468Z,63.50
2022-08-05T03:21:11.178Z,63.40
2022-08-05T03:23:59.903Z,63.29
2022-08-05T03:26:50.947Z,63.49
2022-08-05T03:29:45.635Z,63.54
2022-08-05T03:32:49.563Z,63.71
2022-08-05T03:35:41.834Z,63.24
2022-08-05T03:38:33.320Z,63.45
2022-08-05T03:41:33.301Z,63.74
2022-08-05T03:44:31.666Z,63.97
2022-08-05T03:47:20.313Z,63.68
2022-08-05T03:50:08.591Z,64.21
2022-08-05T03:56:00.779Z,64.14
2022-08-05T03:56:35.003Z,63.80
2022-08-05T03:59:47.010Z,64.05
2022-08-05T04:02:52.044Z,63.89
2022-08-05T04:05:44.693Z,63.64
2022-08-05T04:08:36.521Z,63.77
2022-08-05T04:11:22.975Z,63.95
2022-08-05T04:14:09.850Z,63.79
2022-08-05T04:17:04.081Z,63.88
2022-08-05T04:19:54.434Z,63.91
2022-08-05T04:22:40.584Z,63.65
2022-08-05T04:25:57.740Z,63.54
2022-08-05T04:28:39.042Z,62.84
2022-08-05T04:31:39.451Z,62.60
2022-08-05T04:34:32.792Z,62.24
2022-08-05T04:38:01.168Z,61.75
2022-08-05T04:40:32.907Z,60.83
2022-08-05T04:43:22.036Z,60.35
2022-08-05T04:46:27.805Z,59.61
2022-08-05T04:49:17.159Z,58.90
2022-08-05T04:52:13.176Z,58.21
2022-08-05T04:54:59.902Z,57.94
2022-08-05T04:58:06.995Z,56.92
2022-08-05T05:01:01.197Z,56.49
2022-08-05T05:03:56.182Z,55.73
2022-08-05T05:06:51.927Z,55.46
2022-08-05T05:09:44.439Z,54.80
2022-08-05T05:12:34.057Z,55.03
2022-08-05T05:15:57.268Z,54.06
2022-08-05T05:18:34.943Z,53.40
2022-08-05T05:21:22.289Z,52.74
2022-08-05T05:24:57.927Z,52.59
2022-08-05T05:28:06.355Z,51.79
2022-08-05T05:31:21.021Z,51.68
2022-08-05T05:34:13.355Z,51.21
2022-08-05T05:37:15.177Z,51.31
2022-08-05T05:43:12.401Z,50.02
2022-08-05T05:46:00.393Z,50.05
2022-08-05T05:48:50.921Z,49.58
2022-08-05T05:51:50.030Z,49.29
2022-08-05T05:54:49.875Z,49.14
2022-08-05T05:57:52.936Z,48.77
2022-08-05T06:00:41.877Z,48.21
2022-08-05T06:04:01.022Z,48.03
2022-08-05T06:06:49.472Z,47.60
2022-08-05T06:10:00.107Z,47.79
2022-08-05T06:12:52.147Z,47.21
2022-08-05T06:16:28.742Z,46.67
2022-08-05T06:19:11.384Z,46.44
2022-08-05T06:22:33.493Z,45.70
2022-08-05T06:25:59.408Z,45.42
2022-08-05T06:28:32.922Z,45.56
2022-08-05T06:31:33.950Z,44.58
2022-08-05T06:34:32.018Z,44.68
2022-08-05T06:37:39.384Z,44.67
2022-08-05T06:40:47.907Z,44.70
2022-08-05T06:43:57.834Z,44.39
2022-08-05T06:46:45.233Z,43.38
2022-08-05T06:50:01.648Z,43.29
2022-08-05T06:53:03.801Z,43.01
2022-08-05T06:56:25.724Z,42.85
2022-08-05T06:59:18.961Z,43.16
2022-08-05T07:02:16.262Z,42.72
2022-08-05T07:05:19.125Z,41.94
2022-08-05T07:08:11.014Z,42.25
2022-08-05T07:11:02.867Z,41.87
2022-08-05T07:14:20.372Z,41.72
2022-08-05T07:18:09.381Z,41.66
2022-08-05T07:20:33.071Z,42.13
2022-08-05T07:23:26.092Z,41.80
2022-08-05T07:26:22.463Z,41.95
2022-08-05T07:29:15.103Z,41.58
2022-08-05T07:32:07.905Z,41.32
2022-08-05T07:34:59.561Z,40.77
2022-08-05T07:38:12.290Z,40.43
2022-08-05T07:42:08.167Z,40.20
2022-08-05T07:44:52.032Z,40.34
2022-08-05T07:47:42.066Z,40.39
2022-08-05T07:50:34.416Z,40.29
2022-08-05T07:53:37.025Z,39.86
2022-08-05T07:57:00.413Z,40.12
2022-08-05T07:59:44.372Z,39.72
2022-08-05T08:03:14.689Z,39.40
2022-08-05T08:05:49.306Z,39.72
2022-08-05T08:08:41.636Z,39.08
2022-08-05T08:11:47.586Z,38.38
2022-08-05T08:14:40.779Z,38.61
2022-08-05T08:17:33.157Z,38.65
2022-08-05T08:21:00.495Z,38.66
2022-08-05T08:24:02.357Z,38.34
2022-08-05T08:26:46.966Z,37.95
2022-08-05T08:30:05.680Z,37.87
2022-08-05T08:32:44.298Z,38.28
2022-08-05T08:35:40.908Z,38.07
2022-08-05T08:38:35.839Z,37.81
2022-08-05T08:41:51.899Z,37.88
2022-08-05T08:45:25.307Z,37.33
2022-08-05T08:48:06.916Z,37.32
2022-08-05T08:51:22.519Z,37.55
2022-08-05T08:54:06.457Z,37.38
2022-08-05T08:57:11.206Z,37.46
2022-08-05T09:00:04.662Z,37.13
2022-08-05T09:02:56.932Z,36.89
2022-08-05T09:06:11.088Z,36.54
2022-08-05T09:09:02.153Z,36.80
2022-08-05T09:11:52.552Z,36.65
2022-08-05T09:17:49.583Z,36.60
2022-08-05T09:20:43.106Z,37.09
2022-08-05T09:23:37.313Z,37.21
2022-08-05T09:26:32.411Z,37.40
2022-08-05T09:29:31.033Z,37.59
2022-08-05T09:32:40.268Z,37.58
2022-08-05T09:35:28.274Z,37.43
2022-08-05T09:38:29.515Z,37.20
2022-08-05T09:41:17.627Z,37.25
2022-08-05T09:44:08.947Z,37.16
2022-08-05T09:47:21.981Z,36.52
2022-08-05T09:50:10.763Z,36.52
2022-08-05T09:52:58.955Z,36.96
2022-08-05T09:56:13.433Z,36.82
2022-08-05T09:59:07.036Z,36.83
2022-08-05T10:01:58.040Z,36.68
2022-08-05T10:04:50.592Z,36.72
2022-08-05T10:08:36.831Z,37.09
2022-08-05T10:11:35.077Z,37.11
2022-08-05T10:14:32.611Z,37.24
2022-08-05T10:17:37.220Z,36.54
2022-08-05T10:20:27.456Z,36.93
2022-08-05T10:23:33.980Z,37.01
2022-08-05T10:26:32.453Z,36.49
2022-08-05T10:29:23.953Z,36.50
2022-08-05T10:32:54.070Z,36.39
2022-08-05T10:35:48.555Z,36.59
2022-08-05T10:38:49.509Z,36.77
2022-08-05T10:42:02.950Z,36.35
2022-08-05T10:44:54.360Z,36.71
2022-08-05T10:47:47.143Z,36.14
2022-08-05T10:51:21.649Z,36.50
2022-08-05T10:54:28.642Z,36.12
2022-08-05T10:57:35.303Z,35.98
2022-08-05T11:00:34.333Z,36.20
2022-08-05T11:03:30.166Z,36.42
2022-08-05T11:06:21.275Z,36.47
2022-08-05T11:09:32.211Z,36.68
2022-08-05T11:12:42.986Z,37.38
2022-08-05T11:16:00.430Z,37.12
2022-08-05T11:20:11.183Z,37.17
2022-08-05T11:22:56.935Z,37.10
2022-08-05T11:26:09.334Z,37.36
2022-08-05T11:29:12.331Z,37.40
2022-08-05T11:32:25.467Z,37.06
2022-08-05T11:36:07.422Z,36.74
2022-08-05T11:40:02.926Z,37.04
2022-08-05T11:42:52.876Z,37.29
2022-08-05T11:46:23.396Z,37.08
2022-08-05T11:48:59.694Z,36.72
2022-08-05T11:51:51.638Z,36.38
2022-08-05T11:54:55.061Z,36.25
2022-08-05T11:58:36.807Z,36.61
2022-08-05T12:01:30.621Z,36.63
2022-08-05T12:04:40.306Z,36.45
2022-08-05T12:08:07.526Z,36.79
2022-08-05T12:10:49.977Z,36.93
2022-08-05T12:14:20.197Z,36.66
2022-08-05T12:18:03.353Z,36.61
2022-08-05T12:20:44.237Z,36.51
2022-08-05T12:23:34.784Z,36.90
2022-08-05T12:26:50.766Z,36.63
2022-08-05T12:29:41.140Z,36.97
2022-08-05T12:32:31.769Z,37.00
2022-08-05T12:35:21.879Z,37.28
2022-08-05T12:38:10.269Z,37.33
2022-08-05T12:41:09.686Z,37.72
2022-08-05T12:44:14.385Z,37.79
2022-08-05T12:47:17.234Z,37.66
2022-08-05T12:50:17.736Z,37.47
2022-08-05T12:53:23.505Z,37.78
2022-08-05T12:56:34.857Z,37.68
2022-08-05T12:59:46.668Z,38.04
2022-08-05T13:02:44.650Z,37.76
2022-08-05T13:05:45.592Z,37.50
2022-08-05T13:08:39.474Z,37.60
2022-08-05T13:11:59.754Z,37.45
2022-08-05T13:14:47.383Z,37.59
2022-08-05T13:17:59.276Z,37.73
2022-08-05T13:20:52.472Z,37.34
2022-08-05T13:23:50.545Z,37.34
2022-08-05T13:26:43.358Z,37.71
2022-08-05T13:30:32.366Z,37.72
2022-08-05T13:32:50.593Z,37.45
2022-08-05T13:35:47.317Z,37.15
2022-08-05T13:38:42.646Z,37.65
2022-08-05T13:41:37.604Z,37.54
2022-08-05T13:44:26.658Z,37.72
2022-08-05T13:47:35.039Z,36.94
2022-08-05T13:50:28.468Z,37.04
2022-08-05T13:53:22.743Z,37.33
2022-08-05T13:56:18.052Z,37.55
2022-08-05T13:59:20.505Z,37.81
2022-08-05T14:02:26.668Z,38.28
2022-08-05T14:05:48.427Z,38.26
2022-08-05T14:08:32.635Z,38.29
2022-08-05T14:11:20.724Z,38.22
2022-08-05T14:14:12.986Z,38.46
2022-08-05T14:17:16.894Z,38.47
2022-08-05T14:20:35.185Z,38.54
2022-08-05T14:23:25.718Z,39.01
2022-08-05T14:26:38.592Z,38.47
2022-08-05T14:29:36.102Z,38.28
2022-08-05T14:32:27.675Z,38.09
2022-08-05T14:35:20.721Z,38.66
2022-08-05T14:38:33.126Z,38.46
2022-08-05T14:41:23.723Z,38.73
2022-08-05T14:44:20.489Z,38.53
2022-08-05T14:47:58.546Z,38.26
2022-08-05T14:50:33.196Z,37.99
2022-08-05T14:53:44.293Z,37.81
2022-08-05T14:56:34.975Z,37.86
2022-08-05T14:59:38.291Z,38.21
2022-08-05T15:02:27.400Z,38.25
2022-08-05T15:05:15.484Z,38.33
2022-08-05T15:08:11.367Z,38.12
2022-08-05T15:11:15.630Z,38.36
2022-08-05T15:14:20.143Z,38.30
2022-08-05T15:17:46.722Z,38.24
2022-08-05T15:20:32.562Z,38.23
2022-08-05T15:23:21.216Z,38.20
2022-08-05T15:26:09.729Z,38.36
2022-08-05T15:29:03.888Z,38.34
2022-08-05T15:32:03.285Z,38.68
2022-08-05T15:34:53.199Z,38.18
2022-08-05T15:38:33.027Z,38.63
2022-08-05T15:41:03.432Z,38.67
2022-08-05T15:43:55.432Z,38.34
2022-08-05T15:46:42.419Z,38.35
2022-08-05T15:49:48.008Z,37.97
2022-08-05T15:52:53.149Z,37.81
2022-08-05T15:56:02.205Z,38.01
2022-08-05T15:58:58.518Z,37.96
2022-08-05T16:01:57.695Z,37.81
2022-08-05T16:04:55.152Z,37.49
2022-08-05T16:07:46.559Z,37.59
2022-08-05T16:10:35.666Z,37.65
2022-08-05T16:13:24.167Z,37.83
2022-08-05T16:16:25.447Z,37.87
2022-08-05T16:19:19.197Z,37.75
2022-08-05T16:22:18.017Z,38.03
2022-08-05T16:25:22.574Z,37.66
2022-08-05T16:28:24.226Z,37.61
2022-08-05T16:31:16.321Z,37.46
2022-08-05T16:34:04.789Z,37.31
2022-08-05T16:36:58.164Z,37.15
2022-08-05T16:40:04.729Z,37.01
2022-08-05T16:42:54.150Z,36.84
2022-08-05T16:46:03.644Z,36.95
2022-08-05T16:48:46.791Z,37.28
2022-08-05T16:51:50.910Z,36.94
2022-08-05T16:54:42.202Z,37.20
2022-08-05T16:57:59.886Z,37.28
2022-08-05T17:00:50.570Z,37.50
2022-08-05T17:03:46.198Z,37.39
2022-08-05T17:06:41.888Z,37.44
2022-08-05T17:09:29.991Z,37.60
2022-08-05T17:12:18.234Z,37.72
2022-08-05T17:15:15.597Z,38.28
2022-08-05T17:18:07.994Z,38.81
2022-08-05T17:21:02.068Z,39.30
2022-08-05T17:24:05.827Z,40.10
2022-08-05T17:27:04.074Z,41.62
2022-08-05T17:29:53.050Z,42.28
2022-08-05T17:32:47.411Z,43.50
2022-08-05T17:39:03.886Z,45.73
2022-08-05T17:42:17.690Z,45.88
2022-08-05T17:45:17.829Z,47.06
2022-08-05T17:48:08.183Z,47.60
2022-08-05T17:50:54.513Z,47.88
2022-08-05T17:53:43.790Z,48.83
2022-08-05T17:56:37.995Z,49.27
2022-08-05T17:59:30.617Z,49.53
2022-08-05T18:02:21.879Z,49.98
2022-08-05T18:05:10.596Z,49.80
2022-08-05T18:08:04.338Z,49.88
2022-08-05T18:10:51.878Z,49.98
2022-08-05T18:13:43.985Z,50.32
2022-08-05T18:16:35.084Z,50.42
2022-08-05T18:19:35.579Z,50.59
2022-08-05T18:22:45.975Z,50.60
2022-08-05T18:25:35.153Z,50.70
2022-08-05T18:28:48.129Z,50.90
2022-08-05T18:31:35.549Z,51.03
2022-08-05T18:34:45.865Z,51.18
2022-08-05T18:37:32.845Z,51.47
2022-08-05T18:41:51.061Z,51.27
2022-08-05T18:43:38.028Z,51.67
2022-08-05T18:46:31.546Z,51.87
2022-08-05T18:49:57.271Z,51.96
2022-08-05T18:52:51.410Z,52.39
2022-08-05T18:55:40.493Z,52.69
2022-08-05T18:58:30.359Z,52.97
2022-08-05T19:01:33.445Z,53.41
2022-08-05T19:04:34.372Z,54.00
2022-08-05T19:07:46.003Z,54.46
2022-08-05T19:10:33.756Z,54.97
2022-08-05T19:13:23.972Z,55.77
2022-08-05T19:16:25.310Z,56.21
2022-08-05T19:19:20.962Z,56.56
2022-08-05T19:22:06.807Z,57.12
2022-08-05T19:25:00.660Z,57.90
2022-08-05T19:27:48.482Z,57.95
2022-08-05T19:30:36.119Z,58.07
2022-08-05T19:33:34.047Z,58.54
2022-08-05T19:36:22.297Z,59.44
2022-08-05T19:39:12.465Z,59.55
2022-08-05T19:42:09.312Z,59.65
2022-08-05T19:44:59.395Z,60.37
2022-08-05T19:47:51.485Z,60.76
2022-08-05T19:50:42.505Z,60.95
2022-08-05T19:54:04.022Z,60.64
2022-08-05T19:56:39.466Z,60.74
2022-08-05T19:59:55.177Z,61.08
2022-08-05T20:02:44.327Z,61.15
2022-08-05T20:05:49.971Z,60.82
2022-08-05T20:08:39.120Z,60.85
2022-08-05T20:11:24.853Z,61.29
2022-08-05T20:14:12.443Z,61.08
2022-08-05T20:17:03.538Z,61.12
2022-08-05T20:19:56.930Z,61.13
2022-08-05T20:22:44.229Z,61.62
2022-08-05T20:25:33.833Z,61.44
2022-08-05T20:28:27.038Z,61.60
2022-08-05T20:31:16.374Z,61.73
2022-08-05T20:34:03.277Z,62.60
2022-08-05T20:36:51.434Z,62.79
2022-08-05T20:39:37.667Z,63.11
2022-08-05T20:42:48.586Z,63.67
2022-08-05T20:45:47.750Z,63.65
2022-08-05T20:48:43.504Z,63.99
2022-08-05T20:51:29.684Z,63.96
2022-08-05T20:54:19.139Z,63.76
2022-08-05T20:57:05.184Z,63.76
2022-08-05T21:00:21.065Z,63.76
2022-08-05T21:03:06.197Z,63.82
2022-08-05T21:05:54.486Z,63.92
2022-08-05T21:08:44.088Z,64.24
2022-08-05T21:12:07.086Z,65.18
2022-08-05T21:14:36.352Z,65.40
2022-08-05T21:17:22.212Z,65.06
2022-08-05T21:20:09.883Z,65.32
2022-08-05T21:22:56.327Z,65.41
2022-08-05T21:25:44.794Z,65.67
2022-08-05T21:28:32.061Z,65.67
2022-08-05T21:31:19.342Z,66.22
2022-08-05T21:34:05.500Z,66.19
2022-08-05T21:36:53.234Z,65.91
2022-08-05T21:39:43.310Z,66.28
2022-08-05T21:42:44.019Z,65.95
2022-08-05T21:45:56.511Z,65.91
2022-08-05T21:48:42.591Z,66.23
2022-08-05T21:52:22.028Z,65.91
2022-08-05T21:54:34.626Z,66.52
2022-08-05T21:57:36.101Z,66.84
2022-08-05T22:00:22.623Z,67.36
2022-08-05T22:03:14.525Z,67.86
2022-08-05T22:06:01.892Z,68.10
2022-08-05T22:08:52.841Z,68.53
2022-08-05T22:11:39.280Z,69.25
2022-08-05T22:14:35.583Z,69.11
2022-08-05T22:17:24.340Z,69.81
2022-08-05T22:20:15.308Z,70.01
2022-08-05T22:23:25.466Z,70.73
2022-08-05T22:26:50.561Z,71.25
2022-08-05T22:29:39.013Z,71.76
2022-08-05T22:32:30.757Z,71.89
2022-08-05T22:35:18.460Z,72.49
2022-08-05T22:38:06.905Z,72.44
2022-08-05T22:40:56.168Z,72.81
2022-08-05T22:43:42.453Z,72.58
2022-08-05T22:46:31.098Z,72.43
2022-08-05T22:50:17.611Z,72.39
2022-08-05T22:52:32.609Z,71.97
2022-08-05T22:55:22.371Z,71.99
2022-08-05T22:58:11.778Z,71.79
2022-08-05T23:01:00.699Z,71.72
2022-08-05T23:03:58.691Z,72.13
2022-08-05T23:06:45.550Z,72.42
2022-08-05T23:09:57.437Z,71.54
2022-08-05T23:12:43.939Z,71.42
2022-08-05T23:15:35.187Z,71.48
2022-08-05T23:18:22.905Z,71.52
2022-08-05T23:21:10.243Z,71.46
2022-08-05T23:23:56.357Z,71.90
2022-08-05T23:26:42.728Z,72.07
2022-08-05T23:29:34.578Z,72.38
2022-08-05T23:32:23.483Z,72.36
2022-08-05T23:35:09.539Z,72.20
2022-08-05T23:37:55.572Z,71.59
2022-08-05T23:40:42.542Z,72.07
2022-08-05T23:44:05.028Z,72.18
2022-08-05T23:46:45.577Z,71.89
2022-08-05T23:49:35.928Z,71.95
2022-08-05T23:52:32.604Z,72.56
2022-08-05T23:55:31.038Z,71.93
2022-08-05T23:58:31.971Z,72.08
